createdAt,value
2018-10-11T00:00:14.372Z,13.80
2018-10-11T00:02:42.860Z,13.90
2018-10-11T00:05:11.414Z,13.90
2018-10-11T00:07:39.940Z,13.90
2018-10-11T00:10:08.531Z,14.00
2018-10-11T00:12:37.328Z,14.10
2018-10-11T00:15:05.910Z,14.10
2018-10-11T00:17:34.426Z,14.10
2018-10-11T00:20:03.005Z,14.10
2018-10-11T00:22:31.465Z,14.00
2018-10-11T00:25:00.011Z,14.00
2018-10-11T00:27:28.538Z,14.00
2018-10-11T00:29:57.061Z,14.00
2018-10-11T00:32:25.569Z,14.00
2018-10-11T00:34:54.102Z,14.00
2018-10-11T00:37:22.584Z,13.90
2018-10-11T00:39:51.072Z,13.80
2018-10-11T00:42:19.602Z,13.90
2018-10-11T00:44:48.130Z,13.80
2018-10-11T00:47:16.628Z,13.70
2018-10-11T00:49:45.104Z,13.70
2018-10-11T00:52:13.613Z,13.70
2018-10-11T00:54:42.151Z,13.70
2018-10-11T00:57:10.644Z,13.60
2018-10-11T00:59:39.209Z,13.50
2018-10-11T01:02:07.743Z,13.60
2018-10-11T01:04:36.329Z,13.60
2018-10-11T01:07:04.896Z,13.50
2018-10-11T01:09:33.406Z,13.60
2018-10-11T01:12:02.358Z,13.60
2018-10-11T01:14:30.897Z,13.60
2018-10-11T01:16:59.446Z,13.50
2018-10-11T01:19:28.236Z,13.70
2018-10-11T01:21:56.746Z,13.70
2018-10-11T01:24:25.273Z,13.50
2018-10-11T01:26:53.827Z,13.60
2018-10-11T01:29:22.318Z,13.60
2018-10-11T01:31:50.925Z,13.60
2018-10-11T01:34:19.444Z,13.50
2018-10-11T01:36:48.004Z,13.50
2018-10-11T01:39:16.592Z,13.40
2018-10-11T01:41:45.139Z,13.40
2018-10-11T01:44:13.672Z,13.50
2018-10-11T01:46:42.205Z,13.50
2018-10-11T01:49:10.704Z,13.50
2018-10-11T01:51:39.245Z,13.40
2018-10-11T01:54:12.784Z,13.30
2018-10-11T01:56:41.368Z,13.20
2018-10-11T01:59:09.877Z,13.10
2018-10-11T02:01:38.440Z,13.20
2018-10-11T02:04:07.429Z,13.20
2018-10-11T02:06:35.970Z,13.00
2018-10-11T02:09:09.999Z,13.00
2018-10-11T02:11:38.489Z,12.80
2018-10-11T02:14:07.071Z,12.80
2018-10-11T02:16:35.653Z,12.90
2018-10-11T02:19:04.198Z,12.70
2018-10-11T02:21:32.754Z,12.70
2018-10-11T02:24:01.288Z,12.60
2018-10-11T02:26:29.822Z,12.80
2018-10-11T02:28:58.366Z,12.70
2018-10-11T02:31:26.912Z,12.80
2018-10-11T02:33:55.370Z,12.90
2018-10-11T02:36:23.862Z,13.00
2018-10-11T02:38:52.410Z,13.00
2018-10-11T02:41:21.754Z,13.00
2018-10-11T02:43:50.264Z,13.00
2018-10-11T02:46:18.826Z,13.00
2018-10-11T02:48:47.342Z,12.80
2018-10-11T02:51:15.937Z,12.80
2018-10-11T02:53:44.489Z,12.80
2018-10-11T02:56:13.242Z,12.90
2018-10-11T02:58:53.003Z,12.80
2018-10-11T03:01:22.051Z,12.90
2018-10-11T03:03:53.411Z,12.60
2018-10-11T03:06:21.969Z,12.50
2018-10-11T03:08:50.491Z,12.30
2018-10-11T03:11:19.104Z,12.40
2018-10-11T03:13:47.653Z,12.40
2018-10-11T03:16:16.128Z,12.40
2018-10-11T03:18:44.662Z,12.60
2018-10-11T03:21:13.204Z,12.40
2018-10-11T03:23:41.732Z,12.20
2018-10-11T03:26:10.263Z,12.30
2018-10-11T03:28:38.764Z,12.20
2018-10-11T03:31:07.597Z,12.40
2018-10-11T03:33:36.080Z,12.60
2018-10-11T03:36:08.047Z,12.70
2018-10-11T03:38:36.563Z,12.60
2018-10-11T03:41:05.124Z,12.70
2018-10-11T03:43:33.651Z,12.60
2018-10-11T03:46:02.124Z,12.60
2018-10-11T03:48:30.648Z,12.60
2018-10-11T03:50:59.154Z,12.70
2018-10-11T03:53:27.650Z,12.80
2018-10-11T03:55:56.162Z,12.80
2018-10-11T03:58:24.725Z,12.80
2018-10-11T04:00:53.269Z,12.70
2018-10-11T04:03:21.825Z,12.70
2018-10-11T04:05:50.349Z,12.70
2018-10-11T04:08:18.877Z,12.70
2018-10-11T04:10:47.384Z,12.70
2018-10-11T04:13:15.839Z,12.60
2018-10-11T04:15:44.335Z,12.60
2018-10-11T04:18:13.187Z,12.60
2018-10-11T04:20:41.688Z,12.60
2018-10-11T04:23:14.398Z,12.60
2018-10-11T04:25:42.917Z,12.60
2018-10-11T04:28:11.438Z,12.50
2018-10-11T04:30:39.977Z,12.40
2018-10-11T04:33:08.496Z,12.40
2018-10-11T04:35:36.984Z,12.40
2018-10-11T04:38:05.553Z,12.30
2018-10-11T04:40:34.056Z,12.30
2018-10-11T04:43:02.665Z,12.30
2018-10-11T04:45:31.114Z,12.40
2018-10-11T04:47:59.627Z,12.40
2018-10-11T04:50:28.159Z,12.40
2018-10-11T04:52:56.716Z,12.40
2018-10-11T04:55:25.527Z,12.40
2018-10-11T04:57:54.368Z,12.40
2018-10-11T05:00:23.482Z,12.30
2018-10-11T05:02:52.073Z,12.30
2018-10-11T05:05:20.633Z,12.10
2018-10-11T05:07:49.364Z,12.00
2018-10-11T05:10:18.124Z,12.00
2018-10-11T05:12:46.792Z,12.00
2018-10-11T05:15:15.403Z,11.90
2018-10-11T05:17:45.110Z,12.00
2018-10-11T05:20:13.634Z,12.00
2018-10-11T05:22:42.184Z,12.00
2018-10-11T05:25:10.831Z,11.90
2018-10-11T05:27:39.436Z,11.90
2018-10-11T05:30:08.063Z,11.70
2018-10-11T05:32:37.131Z,11.60
2018-10-11T05:35:06.201Z,11.60
2018-10-11T05:37:35.549Z,11.60
2018-10-11T05:40:04.213Z,11.50
2018-10-11T05:42:32.764Z,11.50
2018-10-11T05:45:35.018Z,11.50
2018-10-11T05:48:03.583Z,11.60
2018-10-11T05:50:32.190Z,11.60
2018-10-11T05:53:00.767Z,11.60
2018-10-11T05:55:29.355Z,11.50
2018-10-11T05:57:57.960Z,11.50
2018-10-11T06:00:26.602Z,11.50
2018-10-11T06:03:00.474Z,11.50
2018-10-11T06:05:29.902Z,11.40
2018-10-11T06:07:59.586Z,11.40
2018-10-11T06:10:28.943Z,11.50
2018-10-11T06:12:58.485Z,11.50
2018-10-11T06:15:27.080Z,11.50
2018-10-11T06:17:55.737Z,11.50
2018-10-11T06:20:24.297Z,11.40
2018-10-11T06:22:52.884Z,11.40
2018-10-11T06:25:21.513Z,11.50
2018-10-11T06:27:50.110Z,11.60
2018-10-11T06:30:18.761Z,11.60
2018-10-11T06:32:47.525Z,11.70
2018-10-11T06:35:16.131Z,11.70
2018-10-11T06:37:45.421Z,11.70
2018-10-11T06:40:13.979Z,11.70
2018-10-11T06:42:43.133Z,11.80
2018-10-11T06:45:13.292Z,11.90
2018-10-11T06:47:43.008Z,11.90
2018-10-11T06:50:11.549Z,11.90
2018-10-11T06:52:40.156Z,12.00
2018-10-11T06:55:08.725Z,12.00
2018-10-11T06:57:37.218Z,12.00
2018-10-11T07:00:12.487Z,12.10
2018-10-11T07:02:41.058Z,12.20
2018-10-11T07:05:09.627Z,12.30
2018-10-11T07:07:38.230Z,12.30
2018-10-11T07:10:07.012Z,12.40
2018-10-11T07:12:35.585Z,12.40
2018-10-11T07:15:04.193Z,12.40
2018-10-11T07:17:32.749Z,12.40
2018-10-11T07:20:01.269Z,12.60
2018-10-11T07:22:29.911Z,12.60
2018-10-11T07:24:59.014Z,12.70
2018-10-11T07:27:27.526Z,12.80
2018-10-11T07:29:56.025Z,12.80
2018-10-11T07:32:24.538Z,12.90
2018-10-11T07:34:53.088Z,12.80
2018-10-11T07:37:21.677Z,12.90
2018-10-11T07:39:50.260Z,13.00
2018-10-11T07:42:18.783Z,13.00
2018-10-11T07:44:47.279Z,13.10
2018-10-11T07:47:15.875Z,13.30
2018-10-11T07:49:55.235Z,13.60
2018-10-11T07:52:23.810Z,13.80
2018-10-11T07:54:52.398Z,14.10
2018-10-11T07:57:20.918Z,14.30
2018-10-11T07:59:49.462Z,14.30
2018-10-11T08:02:18.048Z,14.40
2018-10-11T08:04:46.511Z,14.50
2018-10-11T08:07:15.128Z,14.60
2018-10-11T08:09:43.545Z,14.70
2018-10-11T08:12:12.123Z,14.80
2018-10-11T08:14:40.722Z,14.90
2018-10-11T08:17:09.669Z,14.90
2018-10-11T08:19:37.839Z,14.90
2018-10-11T08:22:06.399Z,15.00
2018-10-11T08:24:35.002Z,15.10
2018-10-11T08:27:05.177Z,15.20
2018-10-11T08:29:33.720Z,15.20
2018-10-11T08:32:02.308Z,15.40
2018-10-11T08:34:30.790Z,15.60
2018-10-11T08:36:59.328Z,15.60
2018-10-11T08:39:27.900Z,16.00
2018-10-11T08:41:56.441Z,16.10
2018-10-11T08:44:24.955Z,16.30
2018-10-11T08:46:53.464Z,16.30
2018-10-11T08:49:21.989Z,16.40
2018-10-11T08:51:50.549Z,16.70
2018-10-11T08:54:24.347Z,16.70
2018-10-11T08:56:53.360Z,16.80
2018-10-11T08:59:21.884Z,16.80
2018-10-11T09:01:50.349Z,16.90
2018-10-11T09:04:18.944Z,17.00
2018-10-11T09:06:47.521Z,16.70
2018-10-11T09:09:16.090Z,16.90
2018-10-11T09:11:44.602Z,17.00
2018-10-11T09:14:13.114Z,17.20
2018-10-11T09:16:41.565Z,17.20
2018-10-11T09:19:10.070Z,17.20
2018-10-11T09:21:38.583Z,17.70
2018-10-11T09:24:07.183Z,17.70
2018-10-11T09:26:35.800Z,17.70
2018-10-11T09:29:04.354Z,17.80
2018-10-11T09:31:32.847Z,18.20
2018-10-11T09:34:01.373Z,18.20
2018-10-11T09:36:30.316Z,18.40
2018-10-11T09:38:58.878Z,18.70
2018-10-11T09:41:27.395Z,18.70
2018-10-11T09:43:55.844Z,18.80
2018-10-11T09:46:24.343Z,18.60
2018-10-11T09:48:52.920Z,18.70
2018-10-11T09:51:21.369Z,18.90
2018-10-11T09:53:49.919Z,18.80
2018-10-11T09:56:18.470Z,19.00
2018-10-11T09:58:47.028Z,19.30
2018-10-11T10:01:51.037Z,19.40
2018-10-11T10:04:19.544Z,19.10
2018-10-11T10:06:48.110Z,19.40
2018-10-11T10:09:16.629Z,19.40
2018-10-11T10:11:45.139Z,19.90
2018-10-11T10:14:13.728Z,20.00
2018-10-11T10:16:42.201Z,20.00
2018-10-11T10:19:10.698Z,19.70
2018-10-11T10:21:39.341Z,19.90
2018-10-11T10:24:07.866Z,20.20
2018-10-11T10:26:36.434Z,20.10
2018-10-11T10:29:12.553Z,20.50
2018-10-11T10:31:41.093Z,20.30
2018-10-11T10:34:09.683Z,20.00
2018-10-11T10:36:38.189Z,20.40
2018-10-11T10:39:07.785Z,20.20
2018-10-11T10:41:36.322Z,20.10
2018-10-11T10:44:05.255Z,20.80
2018-10-11T10:46:34.251Z,21.00
2018-10-11T10:49:02.791Z,21.20
2018-10-11T10:51:31.615Z,21.30
2018-10-11T10:54:00.132Z,21.30
2018-10-11T10:56:28.679Z,21.00
2018-10-11T10:58:57.179Z,21.10
2018-10-11T11:01:25.722Z,21.30
2018-10-11T11:03:54.228Z,21.40
2018-10-11T11:06:22.773Z,21.40
2018-10-11T11:08:51.283Z,21.30
2018-10-11T11:11:19.784Z,21.10
2018-10-11T11:13:48.303Z,21.10
2018-10-11T11:16:16.870Z,21.40
2018-10-11T11:18:45.446Z,21.30
2018-10-11T11:21:14.025Z,20.90
2018-10-11T11:23:42.564Z,21.20
2018-10-11T11:26:11.101Z,21.30
2018-10-11T11:28:39.655Z,21.20
2018-10-11T11:31:08.278Z,22.00
2018-10-11T11:33:36.832Z,22.40
2018-10-11T11:36:11.454Z,22.50
2018-10-11T11:38:39.997Z,22.40
2018-10-11T11:41:08.556Z,22.40
2018-10-11T11:43:37.119Z,22.90
2018-10-11T11:46:05.649Z,23.20
2018-10-11T11:48:34.215Z,23.00
2018-10-11T11:51:02.728Z,22.60
2018-10-11T11:53:31.360Z,22.90
2018-10-11T11:55:59.930Z,23.50
2018-10-11T11:58:28.497Z,23.70
2018-10-11T12:00:57.087Z,24.00
2018-10-11T12:03:25.672Z,24.20
2018-10-11T12:05:54.224Z,23.60
2018-10-11T12:08:25.551Z,23.40
2018-10-11T12:10:54.155Z,23.30
2018-10-11T12:13:22.740Z,23.30
2018-10-11T12:15:51.301Z,23.30
2018-10-11T12:18:19.932Z,23.60
2018-10-11T12:20:48.533Z,24.20
2018-10-11T12:23:17.016Z,24.10
2018-10-11T12:25:45.539Z,24.10
2018-10-11T12:28:14.125Z,24.20
2018-10-11T12:30:42.758Z,24.30
2018-10-11T12:33:11.358Z,24.00
2018-10-11T12:35:39.863Z,24.30
2018-10-11T12:38:08.389Z,24.10
2018-10-11T12:40:36.989Z,23.80
2018-10-11T12:43:05.796Z,23.30
2018-10-11T12:45:34.324Z,23.50
2018-10-11T12:48:02.910Z,23.50
2018-10-11T12:50:31.450Z,23.80
2018-10-11T12:53:00.067Z,23.80
2018-10-11T12:55:28.662Z,23.70
2018-10-11T12:57:57.236Z,23.80
2018-10-11T13:00:25.773Z,23.80
2018-10-11T13:02:54.382Z,23.80
2018-10-11T13:05:22.795Z,23.80
2018-10-11T13:07:51.414Z,23.70
2018-10-11T13:10:20.011Z,23.60
2018-10-11T13:12:48.527Z,23.80
2018-10-11T13:15:17.122Z,24.20
2018-10-11T13:17:45.863Z,24.10
2018-10-11T13:20:14.392Z,24.00
2018-10-11T13:22:42.980Z,23.80
2018-10-11T13:25:11.689Z,23.80
2018-10-11T13:27:40.211Z,23.80
2018-10-11T13:30:08.841Z,23.80
2018-10-11T13:32:37.517Z,23.80
2018-10-11T13:35:06.464Z,23.50
2018-10-11T13:37:35.066Z,22.90
2018-10-11T13:40:03.998Z,22.70
2018-10-11T13:42:32.577Z,22.70
2018-10-11T13:45:01.144Z,22.60
2018-10-11T13:47:29.708Z,22.70
2018-10-11T13:50:04.754Z,22.50
2018-10-11T13:52:33.333Z,22.50
2018-10-11T13:55:08.122Z,22.60
2018-10-11T13:57:31.435Z,22.40
2018-10-11T13:59:59.280Z,22.50
2018-10-11T14:02:27.847Z,22.40
2018-10-11T14:04:56.410Z,22.40
2018-10-11T14:07:24.999Z,22.40
2018-10-11T14:09:53.752Z,22.40
2018-10-11T14:12:22.254Z,22.40
2018-10-11T14:14:50.787Z,22.40
2018-10-11T14:17:19.373Z,22.40
2018-10-11T14:19:47.900Z,22.40
2018-10-11T14:22:16.494Z,22.50
2018-10-11T14:24:45.032Z,22.50
2018-10-11T14:27:14.214Z,22.60
2018-10-11T14:29:42.757Z,22.60
2018-10-11T14:32:11.258Z,22.70
2018-10-11T14:34:39.813Z,22.70
2018-10-11T14:37:08.614Z,22.80
2018-10-11T14:39:37.056Z,22.90
2018-10-11T14:42:05.681Z,23.00
2018-10-11T14:44:34.234Z,22.90
2018-10-11T14:47:02.830Z,22.70
2018-10-11T14:49:31.412Z,22.90
2018-10-11T14:51:59.940Z,22.90
2018-10-11T14:54:31.992Z,22.80
2018-10-11T14:57:00.587Z,22.70
2018-10-11T14:59:29.211Z,22.60
2018-10-11T15:01:57.739Z,22.60
2018-10-11T15:04:26.273Z,22.40
2018-10-11T15:06:54.845Z,22.10
2018-10-11T15:09:23.361Z,22.00
2018-10-11T15:11:51.926Z,21.90
2018-10-11T15:14:20.497Z,21.80
2018-10-11T15:16:49.101Z,21.80
2018-10-11T15:19:17.659Z,21.70
2018-10-11T15:21:46.257Z,21.60
2018-10-11T15:24:14.816Z,21.60
2018-10-11T15:26:43.436Z,21.50
2018-10-11T15:29:12.064Z,21.40
2018-10-11T15:31:40.638Z,21.40
2018-10-11T15:34:09.145Z,21.30
2018-10-11T15:36:37.672Z,21.30
2018-10-11T15:39:09.037Z,21.30
2018-10-11T15:41:37.627Z,21.10
2018-10-11T15:44:06.479Z,21.10
2018-10-11T15:46:35.061Z,21.00
2018-10-11T15:49:03.658Z,21.00
2018-10-11T15:51:32.271Z,20.90
2018-10-11T15:54:00.831Z,21.00
2018-10-11T15:56:29.465Z,21.00
2018-10-11T15:58:58.105Z,20.90
2018-10-11T16:01:26.741Z,20.80
2018-10-11T16:03:55.618Z,20.70
2018-10-11T16:06:24.254Z,20.70
2018-10-11T16:08:52.862Z,20.70
2018-10-11T16:11:21.435Z,20.60
2018-10-11T16:13:50.069Z,20.60
2018-10-11T16:16:18.684Z,20.60
2018-10-11T16:18:47.294Z,20.30
2018-10-11T16:21:15.895Z,20.20
2018-10-11T16:23:44.548Z,20.10
2018-10-11T16:26:13.215Z,20.00
2018-10-11T16:28:42.740Z,19.90
2018-10-11T16:31:11.231Z,19.90
2018-10-11T16:33:39.840Z,19.80
2018-10-11T16:36:15.255Z,19.80
2018-10-11T16:38:43.857Z,19.90
2018-10-11T16:41:12.502Z,19.80
2018-10-11T16:43:41.095Z,19.30
2018-10-11T16:46:09.751Z,19.20
2018-10-11T16:48:38.546Z,19.00
2018-10-11T16:51:07.349Z,18.80
2018-10-11T16:53:35.917Z,18.80
2018-10-11T16:56:04.511Z,18.60
2018-10-11T16:58:33.103Z,18.60
2018-10-11T17:01:01.721Z,18.70
2018-10-11T17:03:30.274Z,18.80
2018-10-11T17:05:58.863Z,18.80
2018-10-11T17:08:27.410Z,18.90
2018-10-11T17:10:55.994Z,18.80
2018-10-11T17:13:24.569Z,18.80
2018-10-11T17:15:53.231Z,18.60
2018-10-11T17:18:21.828Z,18.40
2018-10-11T17:20:50.512Z,18.10
2018-10-11T17:23:19.352Z,18.00
2018-10-11T17:25:47.952Z,18.00
2018-10-11T17:28:16.463Z,17.90
2018-10-11T17:30:45.059Z,17.60
2018-10-11T17:33:13.611Z,17.40
2018-10-11T17:35:42.187Z,17.60
2018-10-11T17:38:10.775Z,17.60
2018-10-11T17:40:39.461Z,17.70
2018-10-11T17:43:08.157Z,17.70
2018-10-11T17:45:36.815Z,17.50
2018-10-11T17:48:05.455Z,17.40
2018-10-11T17:50:34.050Z,17.20
2018-10-11T17:53:02.641Z,17.20
2018-10-11T17:55:31.265Z,17.30
2018-10-11T17:57:59.870Z,17.20
2018-10-11T18:00:28.661Z,17.40
2018-10-11T18:02:57.288Z,17.20
2018-10-11T18:05:25.952Z,17.30
2018-10-11T18:07:54.512Z,17.20
2018-10-11T18:10:23.142Z,17.20
2018-10-11T18:12:51.729Z,17.20
2018-10-11T18:15:20.407Z,17.10
2018-10-11T18:17:49.019Z,17.00
2018-10-11T18:20:17.633Z,16.90
2018-10-11T18:22:46.215Z,16.90
2018-10-11T18:25:14.773Z,16.90
2018-10-11T18:27:43.450Z,16.90
2018-10-11T18:30:12.553Z,16.90
2018-10-11T18:32:41.438Z,16.80
2018-10-11T18:35:10.703Z,16.70
2018-10-11T18:37:39.245Z,16.70
2018-10-11T18:40:07.887Z,16.70
2018-10-11T18:42:36.494Z,16.60
2018-10-11T18:45:12.960Z,16.70
2018-10-11T18:47:41.627Z,16.70
2018-10-11T18:50:10.191Z,16.70
2018-10-11T18:52:38.739Z,16.80
2018-10-11T18:55:07.338Z,16.80
2018-10-11T18:57:35.970Z,16.90
2018-10-11T19:00:11.175Z,16.90
2018-10-11T19:02:39.697Z,16.90
2018-10-11T19:05:08.317Z,16.80
2018-10-11T19:07:36.897Z,16.80
2018-10-11T19:10:05.512Z,16.80
2018-10-11T19:12:34.094Z,16.80
2018-10-11T19:15:02.663Z,16.80
2018-10-11T19:17:31.334Z,16.70
2018-10-11T19:19:59.852Z,16.70
2018-10-11T19:22:28.398Z,16.70
2018-10-11T19:24:56.994Z,16.80
2018-10-11T19:27:25.545Z,16.80
2018-10-11T19:29:54.195Z,16.70
2018-10-11T19:32:22.745Z,16.70
2018-10-11T19:34:51.430Z,16.60
2018-10-11T19:37:20.610Z,16.50
2018-10-11T19:39:49.415Z,16.50
2018-10-11T19:42:18.078Z,16.60
2018-10-11T19:44:46.864Z,16.40
2018-10-11T19:47:15.453Z,16.40
2018-10-11T19:49:44.096Z,16.30
2018-10-11T19:52:12.634Z,16.30
2018-10-11T19:54:41.289Z,16.40
2018-10-11T19:57:09.942Z,16.30
2018-10-11T19:59:38.500Z,16.40
2018-10-11T20:02:07.181Z,16.30
2018-10-11T20:04:35.745Z,16.40
2018-10-11T20:07:04.343Z,16.30
2018-10-11T20:09:33.013Z,16.20
2018-10-11T20:12:01.640Z,16.20
2018-10-11T20:14:30.205Z,16.10
2018-10-11T20:16:58.815Z,16.10
2018-10-11T20:19:27.411Z,16.20
2018-10-11T20:21:56.056Z,16.20
2018-10-11T20:24:24.680Z,16.20
2018-10-11T20:26:53.240Z,16.10
2018-10-11T20:29:21.805Z,16.10
2018-10-11T20:31:50.416Z,16.20
2018-10-11T20:34:18.992Z,16.20
2018-10-11T20:36:47.587Z,16.30
2018-10-11T20:39:16.201Z,16.10
2018-10-11T20:41:44.780Z,16.20
2018-10-11T20:44:13.312Z,16.20
2018-10-11T20:46:41.862Z,16.00
2018-10-11T20:49:10.377Z,16.00
2018-10-11T20:51:39.004Z,16.10
2018-10-11T20:54:14.783Z,16.10
2018-10-11T20:56:43.367Z,16.00
2018-10-11T20:59:11.988Z,15.80
2018-10-11T21:01:40.576Z,15.70
2018-10-11T21:04:09.160Z,15.70
2018-10-11T21:06:37.785Z,15.60
2018-10-11T21:09:12.500Z,15.60
2018-10-11T21:11:41.147Z,15.80
2018-10-11T21:14:09.884Z,15.70
2018-10-11T21:16:38.501Z,15.60
2018-10-11T21:19:07.746Z,15.50
2018-10-11T21:21:36.438Z,15.50
2018-10-11T21:24:05.044Z,15.60
2018-10-11T21:26:33.640Z,15.40
2018-10-11T21:29:02.211Z,15.40
2018-10-11T21:31:30.809Z,15.50
2018-10-11T21:33:59.396Z,15.60
2018-10-11T21:36:27.985Z,15.50
2018-10-11T21:38:56.438Z,15.50
2018-10-11T21:41:24.972Z,15.50
2018-10-11T21:43:53.576Z,15.50
2018-10-11T21:46:22.187Z,15.40
2018-10-11T21:48:50.753Z,15.40
2018-10-11T21:51:19.343Z,15.30
2018-10-11T21:53:47.931Z,15.20
2018-10-11T21:56:16.567Z,15.20
2018-10-11T21:58:45.101Z,15.20
2018-10-11T22:01:18.959Z,15.20
2018-10-11T22:03:47.522Z,15.20
2018-10-11T22:06:16.090Z,15.20
2018-10-11T22:08:45.159Z,15.20
2018-10-11T22:11:14.299Z,15.20
2018-10-11T22:13:43.125Z,15.10
2018-10-11T22:16:11.734Z,15.10
2018-10-11T22:18:41.090Z,15.00
2018-10-11T22:21:10.731Z,15.10
2018-10-11T22:23:40.278Z,15.10
2018-10-11T22:26:09.044Z,15.20
2018-10-11T22:28:37.964Z,15.20
2018-10-11T22:31:06.547Z,15.20
2018-10-11T22:33:35.082Z,15.20
2018-10-11T22:36:05.351Z,15.10
2018-10-11T22:38:34.169Z,14.90
2018-10-11T22:41:02.841Z,15.00
2018-10-11T22:43:31.345Z,15.20
2018-10-11T22:45:59.812Z,15.20
2018-10-11T22:48:28.378Z,15.20
2018-10-11T22:50:56.962Z,15.00
2018-10-11T22:53:25.471Z,15.10
2018-10-11T22:55:53.998Z,15.10
2018-10-11T22:58:22.511Z,15.10
2018-10-11T23:00:51.059Z,15.10
2018-10-11T23:03:19.559Z,15.00
2018-10-11T23:05:48.146Z,14.90
2018-10-11T23:08:16.787Z,14.70
2018-10-11T23:10:45.327Z,14.40
2018-10-11T23:13:13.895Z,14.70
2018-10-11T23:15:42.447Z,14.90
2018-10-11T23:18:12.014Z,15.00
2018-10-11T23:20:40.503Z,15.10
2018-10-11T23:23:09.100Z,15.00
2018-10-11T23:25:37.675Z,15.00
2018-10-11T23:28:06.502Z,15.00
2018-10-11T23:30:35.062Z,15.10
2018-10-11T23:33:03.612Z,15.10
2018-10-11T23:35:32.156Z,15.00
2018-10-11T23:38:00.890Z,14.90
2018-10-11T23:40:29.440Z,15.10
2018-10-11T23:42:58.017Z,15.10
2018-10-11T23:45:26.540Z,15.10
2018-10-11T23:47:55.132Z,15.10
2018-10-11T23:50:23.681Z,15.10
2018-10-11T23:52:52.246Z,15.00
2018-10-11T23:55:20.767Z,14.90
2018-10-11T23:57:49.335Z,15.00
